sensor_id;sensor_type;location;lat;lon;timestamp;temperature;humidity
71801;HTU21D;59647;55.838;37.292;2022-12-07T00:01:26;-4.88;63.60
71801;HTU21D;59647;55.838;37.292;2022-12-07T00:03:54;-4.89;62.90
71801;HTU21D;59647;55.838;37.292;2022-12-07T00:06:23;-5.00;60.15
71801;HTU21D;59647;55.838;37.292;2022-12-07T00:08:49;-4.98;61.53
71801;HTU21D;59647;55.838;37.292;2022-12-07T00:11:19;-5.01;58.96
71801;HTU21D;59647;55.838;37.292;2022-12-07T00:13:46;-5.00;61.18
71801;HTU21D;59647;55.838;37.292;2022-12-07T00:16:15;-5.01;58.62
71801;HTU21D;59647;55.838;37.292;2022-12-07T00:18:42;-5.03;58.50
71801;HTU21D;59647;55.838;37.292;2022-12-07T00:21:17;-5.01;60.69
71801;HTU21D;59647;55.838;37.292;2022-12-07T00:23:43;-4.98;60.34
71801;HTU21D;59647;55.838;37.292;2022-12-07T00:26:12;-5.03;60.80
71801;HTU21D;59647;55.838;37.292;2022-12-07T00:28:38;-5.05;58.64
71801;HTU21D;59647;55.838;37.292;2022-12-07T00:31:09;-5.04;58.37
71801;HTU21D;59647;55.838;37.292;2022-12-07T00:33:36;-5.05;59.66
71801;HTU21D;59647;55.838;37.292;2022-12-07T00:36:07;-5.09;60.29
71801;HTU21D;59647;55.838;37.292;2022-12-07T00:38:35;-5.10;59.07
71801;HTU21D;59647;55.838;37.292;2022-12-07T00:41:04;-5.15;57.22
71801;HTU21D;59647;55.838;37.292;2022-12-07T00:43:30;-5.18;56.88
71801;HTU21D;59647;55.838;37.292;2022-12-07T00:45:57;-5.16;60.52
71801;HTU21D;59647;55.838;37.292;2022-12-07T00:48:23;-5.18;61.16
71801;HTU21D;59647;55.838;37.292;2022-12-07T00:50:49;-5.14;61.55
71801;HTU21D;59647;55.838;37.292;2022-12-07T00:53:15;-5.16;59.94
71801;HTU21D;59647;55.838;37.292;2022-12-07T00:55:42;-5.17;61.44
71801;HTU21D;59647;55.838;37.292;2022-12-07T00:58:08;-5.17;57.90
71801;HTU21D;59647;55.838;37.292;2022-12-07T01:00:36;-5.15;60.22
71801;HTU21D;59647;55.838;37.292;2022-12-07T01:03:03;-5.18;59.79
71801;HTU21D;59647;55.838;37.292;2022-12-07T01:05:29;-5.18;60.17
71801;HTU21D;59647;55.838;37.292;2022-12-07T01:07:54;-5.24;61.66
71801;HTU21D;59647;55.838;37.292;2022-12-07T01:10:21;-5.25;60.80
71801;HTU21D;59647;55.838;37.292;2022-12-07T01:12:46;-5.31;57.05
71801;HTU21D;59647;55.838;37.292;2022-12-07T01:15:13;-5.32;61.58
71801;HTU21D;59647;55.838;37.292;2022-12-07T01:17:39;-5.35;61.13
71801;HTU21D;59647;55.838;37.292;2022-12-07T01:20:05;-5.38;60.43
71801;HTU21D;59647;55.838;37.292;2022-12-07T01:22:31;-5.39;61.73
71801;HTU21D;59647;55.838;37.292;2022-12-07T01:25:01;-5.39;61.63
71801;HTU21D;59647;55.838;37.292;2022-12-07T01:27:28;-5.43;60.84
71801;HTU21D;59647;55.838;37.292;2022-12-07T01:29:54;-5.47;58.78
71801;HTU21D;59647;55.838;37.292;2022-12-07T01:32:20;-5.46;61.21
71801;HTU21D;59647;55.838;37.292;2022-12-07T01:34:48;-5.45;63.07
71801;HTU21D;59647;55.838;37.292;2022-12-07T01:37:14;-5.53;58.12
71801;HTU21D;59647;55.838;37.292;2022-12-07T01:39:40;-5.56;61.60
71801;HTU21D;59647;55.838;37.292;2022-12-07T01:42:12;-5.60;61.44
71801;HTU21D;59647;55.838;37.292;2022-12-07T01:47:43;-5.63;61.35
71801;HTU21D;59647;55.838;37.292;2022-12-07T01:50:09;-5.64;62.85
71801;HTU21D;59647;55.838;37.292;2022-12-07T01:52:37;-5.67;61.86
71801;HTU21D;59647;55.838;37.292;2022-12-07T01:55:08;-5.69;63.28
71801;HTU21D;59647;55.838;37.292;2022-12-07T01:57:38;-5.70;63.44
71801;HTU21D;59647;55.838;37.292;2022-12-07T02:00:07;-5.71;63.34
71801;HTU21D;59647;55.838;37.292;2022-12-07T02:02:55;-5.72;62.45
71801;HTU21D;59647;55.838;37.292;2022-12-07T02:05:23;-5.72;64.04
71801;HTU21D;59647;55.838;37.292;2022-12-07T02:07:51;-5.73;63.02
71801;HTU21D;59647;55.838;37.292;2022-12-07T02:10:27;-5.77;61.68
71801;HTU21D;59647;55.838;37.292;2022-12-07T02:13:03;-5.82;62.92
71801;HTU21D;59647;55.838;37.292;2022-12-07T02:18:17;-5.86;61.64
71801;HTU21D;59647;55.838;37.292;2022-12-07T02:27:04;-5.91;63.11
71801;HTU21D;59647;55.838;37.292;2022-12-07T02:29:13;-5.90;62.17
71801;HTU21D;59647;55.838;37.292;2022-12-07T02:31:46;-5.94;62.91
71801;HTU21D;59647;55.838;37.292;2022-12-07T02:34:28;-5.93;62.53
71801;HTU21D;59647;55.838;37.292;2022-12-07T02:37:00;-5.93;62.95
71801;HTU21D;59647;55.838;37.292;2022-12-07T02:39:51;-5.96;63.01
71801;HTU21D;59647;55.838;37.292;2022-12-07T02:42:25;-5.97;63.79
71801;HTU21D;59647;55.838;37.292;2022-12-07T02:44:54;-6.01;62.85
71801;HTU21D;59647;55.838;37.292;2022-12-07T02:47:21;-6.04;62.57
71801;HTU21D;59647;55.838;37.292;2022-12-07T02:49:49;-6.07;61.73
71801;HTU21D;59647;55.838;37.292;2022-12-07T02:52:15;-6.12;61.57
71801;HTU21D;59647;55.838;37.292;2022-12-07T02:54:41;-6.13;62.86
71801;HTU21D;59647;55.838;37.292;2022-12-07T03:00:19;-6.14;63.21
71801;HTU21D;59647;55.838;37.292;2022-12-07T03:11:24;-6.27;63.95
71801;HTU21D;59647;55.838;37.292;2022-12-07T03:16:49;-6.33;61.16
71801;HTU21D;59647;55.838;37.292;2022-12-07T03:19:19;-6.37;63.67
71801;HTU21D;59647;55.838;37.292;2022-12-07T03:22:00;-6.35;63.84
71801;HTU21D;59647;55.838;37.292;2022-12-07T03:24:34;-6.35;64.04
71801;HTU21D;59647;55.838;37.292;2022-12-07T03:27:17;-6.37;64.43
71801;HTU21D;59647;55.838;37.292;2022-12-07T03:29:52;-6.41;62.06
71801;HTU21D;59647;55.838;37.292;2022-12-07T03:32:35;-6.41;63.52
71801;HTU21D;59647;55.838;37.292;2022-12-07T03:35:09;-6.42;64.14
71801;HTU21D;59647;55.838;37.292;2022-12-07T03:40:16;-6.38;64.67
71801;HTU21D;59647;55.838;37.292;2022-12-07T03:42:43;-6.43;64.42
71801;HTU21D;59647;55.838;37.292;2022-12-07T03:45:10;-6.47;63.43
71801;HTU21D;59647;55.838;37.292;2022-12-07T03:50:45;-6.50;63.96
71801;HTU21D;59647;55.838;37.292;2022-12-07T03:53:37;-6.51;64.01
71801;HTU21D;59647;55.838;37.292;2022-12-07T03:56:09;-6.57;63.51
71801;HTU21D;59647;55.838;37.292;2022-12-07T03:58:36;-6.59;64.21
71801;HTU21D;59647;55.838;37.292;2022-12-07T04:01:02;-6.62;63.04
71801;HTU21D;59647;55.838;37.292;2022-12-07T04:03:28;-6.63;64.43
71801;HTU21D;59647;55.838;37.292;2022-12-07T04:05:54;-6.65;64.45
71801;HTU21D;59647;55.838;37.292;2022-12-07T04:08:20;-6.67;64.11
71801;HTU21D;59647;55.838;37.292;2022-12-07T04:10:46;-6.70;63.51
71801;HTU21D;59647;55.838;37.292;2022-12-07T04:13:12;-6.68;64.58
71801;HTU21D;59647;55.838;37.292;2022-12-07T04:15:38;-6.70;64.60
71801;HTU21D;59647;55.838;37.292;2022-12-07T04:18:04;-6.70;64.49
71801;HTU21D;59647;55.838;37.292;2022-12-07T04:20:29;-6.73;64.53
71801;HTU21D;59647;55.838;37.292;2022-12-07T04:22:55;-6.73;64.30
71801;HTU21D;59647;55.838;37.292;2022-12-07T04:25:21;-6.75;64.66
71801;HTU21D;59647;55.838;37.292;2022-12-07T04:27:47;-6.74;65.32
71801;HTU21D;59647;55.838;37.292;2022-12-07T04:30:13;-6.73;65.60
71801;HTU21D;59647;55.838;37.292;2022-12-07T04:32:38;-6.73;64.91
71801;HTU21D;59647;55.838;37.292;2022-12-07T04:35:05;-6.73;65.46
71801;HTU21D;59647;55.838;37.292;2022-12-07T04:37:31;-6.74;65.22
71801;HTU21D;59647;55.838;37.292;2022-12-07T04:39:57;-6.74;65.34
71801;HTU21D;59647;55.838;37.292;2022-12-07T04:42:22;-6.77;64.83
71801;HTU21D;59647;55.838;37.292;2022-12-07T04:44:48;-6.77;65.01
71801;HTU21D;59647;55.838;37.292;2022-12-07T04:47:14;-6.75;65.78
71801;HTU21D;59647;55.838;37.292;2022-12-07T04:49:40;-6.72;66.17
71801;HTU21D;59647;55.838;37.292;2022-12-07T04:52:06;-6.71;65.71
71801;HTU21D;59647;55.838;37.292;2022-12-07T04:54:31;-6.74;65.19
71801;HTU21D;59647;55.838;37.292;2022-12-07T04:56:57;-6.73;65.40
71801;HTU21D;59647;55.838;37.292;2022-12-07T04:59:23;-6.77;64.93
71801;HTU21D;59647;55.838;37.292;2022-12-07T05:01:49;-6.79;65.24
71801;HTU21D;59647;55.838;37.292;2022-12-07T05:04:15;-6.78;66.22
71801;HTU21D;59647;55.838;37.292;2022-12-07T05:06:41;-6.78;66.05
71801;HTU21D;59647;55.838;37.292;2022-12-07T05:09:07;-6.76;66.24
71801;HTU21D;59647;55.838;37.292;2022-12-07T05:11:33;-6.73;66.59
71801;HTU21D;59647;55.838;37.292;2022-12-07T05:14:23;-6.73;65.98
71801;HTU21D;59647;55.838;37.292;2022-12-07T05:16:50;-6.77;65.79
71801;HTU21D;59647;55.838;37.292;2022-12-07T05:19:17;-6.71;66.98
71801;HTU21D;59647;55.838;37.292;2022-12-07T05:21:43;-6.78;66.02
71801;HTU21D;59647;55.838;37.292;2022-12-07T05:24:12;-6.77;66.95
71801;HTU21D;59647;55.838;37.292;2022-12-07T05:26:39;-6.73;67.20
71801;HTU21D;59647;55.838;37.292;2022-12-07T05:29:05;-6.73;67.29
71801;HTU21D;59647;55.838;37.292;2022-12-07T05:31:31;-6.70;67.43
71801;HTU21D;59647;55.838;37.292;2022-12-07T05:33:57;-6.67;67.59
71801;HTU21D;59647;55.838;37.292;2022-12-07T05:36:23;-6.66;67.59
71801;HTU21D;59647;55.838;37.292;2022-12-07T05:38:49;-6.62;67.87
71801;HTU21D;59647;55.838;37.292;2022-12-07T05:41:17;-6.61;67.85
71801;HTU21D;59647;55.838;37.292;2022-12-07T05:44:02;-6.62;67.56
71801;HTU21D;59647;55.838;37.292;2022-12-07T05:46:28;-6.61;67.62
71801;HTU21D;59647;55.838;37.292;2022-12-07T05:48:54;-6.62;68.04
71801;HTU21D;59647;55.838;37.292;2022-12-07T05:51:20;-6.62;68.11
71801;HTU21D;59647;55.838;37.292;2022-12-07T05:53:46;-6.66;67.97
71801;HTU21D;59647;55.838;37.292;2022-12-07T05:56:12;-6.62;68.46
71801;HTU21D;59647;55.838;37.292;2022-12-07T05:58:38;-6.59;68.44
71801;HTU21D;59647;55.838;37.292;2022-12-07T06:01:22;-6.52;68.53
71801;HTU21D;59647;55.838;37.292;2022-12-07T06:03:48;-6.50;68.44
71801;HTU21D;59647;55.838;37.292;2022-12-07T06:06:13;-6.53;68.35
71801;HTU21D;59647;55.838;37.292;2022-12-07T06:08:39;-6.52;68.64
71801;HTU21D;59647;55.838;37.292;2022-12-07T06:11:05;-6.51;68.82
71801;HTU21D;59647;55.838;37.292;2022-12-07T06:13:49;-6.47;68.83
71801;HTU21D;59647;55.838;37.292;2022-12-07T06:16:15;-6.45;68.91
71801;HTU21D;59647;55.838;37.292;2022-12-07T06:18:41;-6.43;68.75
71801;HTU21D;59647;55.838;37.292;2022-12-07T06:21:07;-6.41;68.91
71801;HTU21D;59647;55.838;37.292;2022-12-07T06:23:35;-6.36;68.66
71801;HTU21D;59647;55.838;37.292;2022-12-07T06:26:01;-6.37;68.81
71801;HTU21D;59647;55.838;37.292;2022-12-07T06:28:27;-6.34;69.02
71801;HTU21D;59647;55.838;37.292;2022-12-07T06:30:59;-6.31;69.00
71801;HTU21D;59647;55.838;37.292;2022-12-07T06:33:27;-6.31;68.91
71801;HTU21D;59647;55.838;37.292;2022-12-07T06:35:53;-6.30;68.84
71801;HTU21D;59647;55.838;37.292;2022-12-07T06:38:19;-6.29;69.18
71801;HTU21D;59647;55.838;37.292;2022-12-07T06:40:45;-6.24;69.29
71801;HTU21D;59647;55.838;37.292;2022-12-07T06:43:11;-6.20;69.31
71801;HTU21D;59647;55.838;37.292;2022-12-07T06:45:37;-6.18;69.26
71801;HTU21D;59647;55.838;37.292;2022-12-07T06:48:02;-6.17;69.26
71801;HTU21D;59647;55.838;37.292;2022-12-07T06:50:28;-6.14;69.43
71801;HTU21D;59647;55.838;37.292;2022-12-07T06:52:54;-6.11;69.40
71801;HTU21D;59647;55.838;37.292;2022-12-07T06:55:20;-6.11;69.55
71801;HTU21D;59647;55.838;37.292;2022-12-07T06:57:48;-6.06;69.70
71801;HTU21D;59647;55.838;37.292;2022-12-07T07:00:14;-6.03;69.67
71801;HTU21D;59647;55.838;37.292;2022-12-07T07:02:40;-6.02;69.97
71801;HTU21D;59647;55.838;37.292;2022-12-07T07:05:06;-5.93;69.93
71801;HTU21D;59647;55.838;37.292;2022-12-07T07:07:32;-5.86;69.84
71801;HTU21D;59647;55.838;37.292;2022-12-07T07:09:58;-5.81;69.49
71801;HTU21D;59647;55.838;37.292;2022-12-07T07:12:24;-5.77;69.49
71801;HTU21D;59647;55.838;37.292;2022-12-07T07:14:50;-5.72;69.74
71801;HTU21D;59647;55.838;37.292;2022-12-07T07:17:15;-5.67;69.56
71801;HTU21D;59647;55.838;37.292;2022-12-07T07:19:41;-5.62;69.58
71801;HTU21D;59647;55.838;37.292;2022-12-07T07:22:07;-5.60;69.45
71801;HTU21D;59647;55.838;37.292;2022-12-07T07:24:33;-5.57;69.14
71801;HTU21D;59647;55.838;37.292;2022-12-07T07:26:59;-5.55;69.08
71801;HTU21D;59647;55.838;37.292;2022-12-07T07:29:25;-5.53;68.82
71801;HTU21D;59647;55.838;37.292;2022-12-07T07:31:50;-5.50;68.55
71801;HTU21D;59647;55.838;37.292;2022-12-07T07:34:16;-5.53;68.15
71801;HTU21D;59647;55.838;37.292;2022-12-07T07:36:42;-5.49;68.92
71801;HTU21D;59647;55.838;37.292;2022-12-07T07:39:10;-5.42;69.04
71801;HTU21D;59647;55.838;37.292;2022-12-07T07:41:38;-5.41;68.43
71801;HTU21D;59647;55.838;37.292;2022-12-07T07:44:05;-5.39;67.86
71801;HTU21D;59647;55.838;37.292;2022-12-07T07:46:30;-5.37;68.01
71801;HTU21D;59647;55.838;37.292;2022-12-07T07:48:58;-5.32;68.04
71801;HTU21D;59647;55.838;37.292;2022-12-07T07:51:24;-5.30;67.79
71801;HTU21D;59647;55.838;37.292;2022-12-07T07:53:50;-5.28;67.65
71801;HTU21D;59647;55.838;37.292;2022-12-07T07:56:16;-5.24;67.59
71801;HTU21D;59647;55.838;37.292;2022-12-07T07:58:42;-5.20;66.72
71801;HTU21D;59647;55.838;37.292;2022-12-07T08:01:07;-5.18;66.75
71801;HTU21D;59647;55.838;37.292;2022-12-07T08:03:34;-5.15;66.95
71801;HTU21D;59647;55.838;37.292;2022-12-07T08:06:02;-5.10;66.43
71801;HTU21D;59647;55.838;37.292;2022-12-07T08:08:28;-5.05;66.43
71801;HTU21D;59647;55.838;37.292;2022-12-07T08:10:54;-5.03;66.75
71801;HTU21D;59647;55.838;37.292;2022-12-07T08:13:20;-4.96;67.08
71801;HTU21D;59647;55.838;37.292;2022-12-07T08:15:47;-4.91;66.67
71801;HTU21D;59647;55.838;37.292;2022-12-07T08:18:14;-4.87;66.88
71801;HTU21D;59647;55.838;37.292;2022-12-07T08:20:41;-4.89;64.64
71801;HTU21D;59647;55.838;37.292;2022-12-07T08:23:08;-4.90;65.04
71801;HTU21D;59647;55.838;37.292;2022-12-07T08:25:34;-4.85;66.42
71801;HTU21D;59647;55.838;37.292;2022-12-07T08:28:00;-4.82;65.36
71801;HTU21D;59647;55.838;37.292;2022-12-07T08:30:27;-4.78;64.47
71801;HTU21D;59647;55.838;37.292;2022-12-07T08:32:53;-4.83;62.66
71801;HTU21D;59647;55.838;37.292;2022-12-07T08:35:19;-4.81;65.39
71801;HTU21D;59647;55.838;37.292;2022-12-07T08:37:45;-4.76;63.93
71801;HTU21D;59647;55.838;37.292;2022-12-07T08:40:12;-4.73;65.61
71801;HTU21D;59647;55.838;37.292;2022-12-07T08:42:49;-4.69;63.95
71801;HTU21D;59647;55.838;37.292;2022-12-07T08:45:16;-4.66;63.44
71801;HTU21D;59647;55.838;37.292;2022-12-07T08:47:49;-4.61;65.02
71801;HTU21D;59647;55.838;37.292;2022-12-07T08:50:16;-4.55;63.95
71801;HTU21D;59647;55.838;37.292;2022-12-07T08:52:43;-4.53;64.10
71801;HTU21D;59647;55.838;37.292;2022-12-07T08:55:10;-4.53;62.34
71801;HTU21D;59647;55.838;37.292;2022-12-07T08:57:36;-4.52;63.19
71801;HTU21D;59647;55.838;37.292;2022-12-07T09:00:04;-4.49;63.03
71801;HTU21D;59647;55.838;37.292;2022-12-07T09:02:31;-4.44;64.26
71801;HTU21D;59647;55.838;37.292;2022-12-07T09:04:57;-4.41;64.11
71801;HTU21D;59647;55.838;37.292;2022-12-07T09:07:24;-4.41;63.04
71801;HTU21D;59647;55.838;37.292;2022-12-07T09:09:50;-4.45;59.81
71801;HTU21D;59647;55.838;37.292;2022-12-07T09:12:16;-4.53;60.74
71801;HTU21D;59647;55.838;37.292;2022-12-07T09:14:42;-4.53;59.95
71801;HTU21D;59647;55.838;37.292;2022-12-07T09:17:09;-4.53;61.90
71801;HTU21D;59647;55.838;37.292;2022-12-07T09:19:35;-4.46;62.46
71801;HTU21D;59647;55.838;37.292;2022-12-07T09:22:02;-4.42;62.85
71801;HTU21D;59647;55.838;37.292;2022-12-07T09:24:28;-4.51;58.98
71801;HTU21D;59647;55.838;37.292;2022-12-07T09:26:54;-4.45;61.68
71801;HTU21D;59647;55.838;37.292;2022-12-07T09:29:19;-4.42;60.76
71801;HTU21D;59647;55.838;37.292;2022-12-07T09:31:45;-4.38;62.61
71801;HTU21D;59647;55.838;37.292;2022-12-07T09:34:11;-4.39;59.64
71801;HTU21D;59647;55.838;37.292;2022-12-07T09:36:37;-4.37;61.73
71801;HTU21D;59647;55.838;37.292;2022-12-07T09:39:03;-4.36;61.52
71801;HTU21D;59647;55.838;37.292;2022-12-07T09:41:30;-4.35;59.77
71801;HTU21D;59647;55.838;37.292;2022-12-07T09:44:20;-4.27;63.24
71801;HTU21D;59647;55.838;37.292;2022-12-07T09:46:46;-4.27;62.63
71801;HTU21D;59647;55.838;37.292;2022-12-07T09:49:18;-4.27;62.10
71801;HTU21D;59647;55.838;37.292;2022-12-07T09:51:44;-4.25;61.15
71801;HTU21D;59647;55.838;37.292;2022-12-07T09:54:16;-4.25;60.99
71801;HTU21D;59647;55.838;37.292;2022-12-07T09:56:43;-4.31;59.29
71801;HTU21D;59647;55.838;37.292;2022-12-07T09:59:15;-4.37;58.57
71801;HTU21D;59647;55.838;37.292;2022-12-07T10:01:42;-4.38;60.56
71801;HTU21D;59647;55.838;37.292;2022-12-07T10:04:14;-4.37;60.58
71801;HTU21D;59647;55.838;37.292;2022-12-07T10:06:41;-4.34;60.61
71801;HTU21D;59647;55.838;37.292;2022-12-07T10:09:25;-4.28;61.21
71801;HTU21D;59647;55.838;37.292;2022-12-07T10:12:08;-4.34;58.19
71801;HTU21D;59647;55.838;37.292;2022-12-07T10:15:21;-4.30;61.38
71801;HTU21D;59647;55.838;37.292;2022-12-07T10:17:31;-4.29;59.22
71801;HTU21D;59647;55.838;37.292;2022-12-07T10:20:20;-4.26;60.72
71801;HTU21D;59647;55.838;37.292;2022-12-07T10:23:04;-4.24;60.44
71801;HTU21D;59647;55.838;37.292;2022-12-07T10:25:36;-4.23;61.57
71801;HTU21D;59647;55.838;37.292;2022-12-07T10:28:15;-4.22;59.26
71801;HTU21D;59647;55.838;37.292;2022-12-07T10:30:57;-4.19;58.34
71801;HTU21D;59647;55.838;37.292;2022-12-07T10:36:38;-4.11;60.51
71801;HTU21D;59647;55.838;37.292;2022-12-07T10:39:13;-4.10;61.00
71801;HTU21D;59647;55.838;37.292;2022-12-07T10:44:32;-4.01;58.59
71801;HTU21D;59647;55.838;37.292;2022-12-07T10:50:07;-3.97;59.38
71801;HTU21D;59647;55.838;37.292;2022-12-07T10:57:48;-3.92;59.94
71801;HTU21D;59647;55.838;37.292;2022-12-07T11:00:22;-3.92;55.89
71801;HTU21D;59647;55.838;37.292;2022-12-07T11:03:02;-3.90;57.87
71801;HTU21D;59647;55.838;37.292;2022-12-07T11:06:10;-3.90;57.35
71801;HTU21D;59647;55.838;37.292;2022-12-07T11:08:49;-3.86;57.18
71801;HTU21D;59647;55.838;37.292;2022-12-07T11:11:40;-3.98;54.94
71801;HTU21D;59647;55.838;37.292;2022-12-07T11:14:31;-4.08;54.68
71801;HTU21D;59647;55.838;37.292;2022-12-07T11:17:20;-4.04;58.96
71801;HTU21D;59647;55.838;37.292;2022-12-07T11:20:18;-3.98;59.01
71801;HTU21D;59647;55.838;37.292;2022-12-07T11:25:35;-4.00;58.13
71801;HTU21D;59647;55.838;37.292;2022-12-07T11:28:29;-4.10;56.67
71801;HTU21D;59647;55.838;37.292;2022-12-07T11:43:05;-4.31;56.74
71801;HTU21D;59647;55.838;37.292;2022-12-07T11:45:54;-4.34;59.47
71801;HTU21D;59647;55.838;37.292;2022-12-07T11:48:34;-4.34;59.03
71801;HTU21D;59647;55.838;37.292;2022-12-07T11:51:26;-4.35;57.80
71801;HTU21D;59647;55.838;37.292;2022-12-07T11:54:56;-4.46;57.62
71801;HTU21D;59647;55.838;37.292;2022-12-07T12:02:23;-4.64;59.33
71801;HTU21D;59647;55.838;37.292;2022-12-07T12:06:04;-4.69;59.86
71801;HTU21D;59647;55.838;37.292;2022-12-07T12:25:34;-5.24;61.75
71801;HTU21D;59647;55.838;37.292;2022-12-07T12:29:39;-5.31;62.33
71801;HTU21D;59647;55.838;37.292;2022-12-07T12:32:43;-5.29;62.89
71801;HTU21D;59647;55.838;37.292;2022-12-07T12:37:52;-5.38;62.63
71801;HTU21D;59647;55.838;37.292;2022-12-07T12:42:56;-5.39;63.37
71801;HTU21D;59647;55.838;37.292;2022-12-07T12:45:32;-5.42;63.50
71801;HTU21D;59647;55.838;37.292;2022-12-07T12:50:47;-5.49;63.27
71801;HTU21D;59647;55.838;37.292;2022-12-07T12:53:14;-5.46;63.44
71801;HTU21D;59647;55.838;37.292;2022-12-07T13:00:47;-5.57;64.21
71801;HTU21D;59647;55.838;37.292;2022-12-07T13:03:27;-5.67;65.61
71801;HTU21D;59647;55.838;37.292;2022-12-07T13:08:53;-5.73;65.91
71801;HTU21D;59647;55.838;37.292;2022-12-07T13:11:32;-5.84;66.16
71801;HTU21D;59647;55.838;37.292;2022-12-07T13:17:03;-5.82;66.33
71801;HTU21D;59647;55.838;37.292;2022-12-07T13:22:49;-5.87;67.52
71801;HTU21D;59647;55.838;37.292;2022-12-07T13:25:26;-5.90;67.14
71801;HTU21D;59647;55.838;37.292;2022-12-07T13:28:02;-5.94;67.02
71801;HTU21D;59647;55.838;37.292;2022-12-07T13:30:43;-5.97;67.23
71801;HTU21D;59647;55.838;37.292;2022-12-07T13:33:11;-6.06;68.66
71801;HTU21D;59647;55.838;37.292;2022-12-07T13:35:38;-6.08;68.62
71801;HTU21D;59647;55.838;37.292;2022-12-07T13:38:23;-6.14;69.51
71801;HTU21D;59647;55.838;37.292;2022-12-07T13:44:13;-6.19;69.71
71801;HTU21D;59647;55.838;37.292;2022-12-07T13:47:06;-6.17;69.57
71801;HTU21D;59647;55.838;37.292;2022-12-07T13:49:46;-6.15;68.94
71801;HTU21D;59647;55.838;37.292;2022-12-07T13:52:19;-6.17;69.81
71801;HTU21D;59647;55.838;37.292;2022-12-07T13:55:05;-6.13;69.39
71801;HTU21D;59647;55.838;37.292;2022-12-07T13:57:34;-6.17;69.78
71801;HTU21D;59647;55.838;37.292;2022-12-07T14:00:06;-6.28;71.23
71801;HTU21D;59647;55.838;37.292;2022-12-07T14:02:34;-6.23;70.28
71801;HTU21D;59647;55.838;37.292;2022-12-07T14:05:24;-6.28;71.57
71801;HTU21D;59647;55.838;37.292;2022-12-07T14:13:40;-6.35;71.22
71801;HTU21D;59647;55.838;37.292;2022-12-07T14:16:22;-6.36;71.03
71801;HTU21D;59647;55.838;37.292;2022-12-07T14:18:49;-6.37;71.54
71801;HTU21D;59647;55.838;37.292;2022-12-07T14:21:17;-6.35;71.53
71801;HTU21D;59647;55.838;37.292;2022-12-07T14:26:28;-6.31;70.98
71801;HTU21D;59647;55.838;37.292;2022-12-07T14:31:53;-6.35;70.71
71801;HTU21D;59647;55.838;37.292;2022-12-07T14:34:21;-6.39;71.43
71801;HTU21D;59647;55.838;37.292;2022-12-07T14:36:47;-6.37;70.72
71801;HTU21D;59647;55.838;37.292;2022-12-07T14:39:12;-6.36;71.09
71801;HTU21D;59647;55.838;37.292;2022-12-07T14:41:38;-6.38;71.44
71801;HTU21D;59647;55.838;37.292;2022-12-07T14:44:23;-6.37;71.44
71801;HTU21D;59647;55.838;37.292;2022-12-07T14:46:49;-6.43;71.49
71801;HTU21D;59647;55.838;37.292;2022-12-07T14:49:16;-6.46;71.74
71801;HTU21D;59647;55.838;37.292;2022-12-07T14:51:44;-6.41;71.06
71801;HTU21D;59647;55.838;37.292;2022-12-07T14:54:17;-6.41;70.83
71801;HTU21D;59647;55.838;37.292;2022-12-07T14:56:44;-6.45;71.40
71801;HTU21D;59647;55.838;37.292;2022-12-07T14:59:12;-6.41;71.65
71801;HTU21D;59647;55.838;37.292;2022-12-07T15:01:38;-6.43;71.74
71801;HTU21D;59647;55.838;37.292;2022-12-07T15:04:04;-6.48;71.91
71801;HTU21D;59647;55.838;37.292;2022-12-07T15:06:30;-6.47;71.80
71801;HTU21D;59647;55.838;37.292;2022-12-07T15:08:56;-6.51;71.45
71801;HTU21D;59647;55.838;37.292;2022-12-07T15:11:22;-6.48;71.74
71801;HTU21D;59647;55.838;37.292;2022-12-07T15:13:47;-6.48;71.41
71801;HTU21D;59647;55.838;37.292;2022-12-07T15:16:32;-6.52;72.25
71801;HTU21D;59647;55.838;37.292;2022-12-07T15:18:58;-6.51;71.83
71801;HTU21D;59647;55.838;37.292;2022-12-07T15:21:24;-6.48;71.57
71801;HTU21D;59647;55.838;37.292;2022-12-07T15:23:50;-6.48;71.84
71801;HTU21D;59647;55.838;37.292;2022-12-07T15:26:16;-6.50;71.61
71801;HTU21D;59647;55.838;37.292;2022-12-07T15:28:42;-6.48;71.96
71801;HTU21D;59647;55.838;37.292;2022-12-07T15:31:16;-6.47;72.37
71801;HTU21D;59647;55.838;37.292;2022-12-07T15:33:43;-6.45;72.03
71801;HTU21D;59647;55.838;37.292;2022-12-07T15:36:19;-6.49;71.86
71801;HTU21D;59647;55.838;37.292;2022-12-07T15:38:46;-6.50;72.51
71801;HTU21D;59647;55.838;37.292;2022-12-07T15:41:17;-6.52;72.44
71801;HTU21D;59647;55.838;37.292;2022-12-07T15:43:43;-6.52;72.56
71801;HTU21D;59647;55.838;37.292;2022-12-07T15:46:33;-6.48;72.37
71801;HTU21D;59647;55.838;37.292;2022-12-07T15:49:00;-6.46;72.12
71801;HTU21D;59647;55.838;37.292;2022-12-07T15:51:26;-6.55;72.82
71801;HTU21D;59647;55.838;37.292;2022-12-07T15:53:52;-6.52;73.04
71801;HTU21D;59647;55.838;37.292;2022-12-07T15:56:18;-6.49;72.74
71801;HTU21D;59647;55.838;37.292;2022-12-07T15:58:44;-6.49;72.74
71801;HTU21D;59647;55.838;37.292;2022-12-07T16:01:11;-6.51;73.38
71801;HTU21D;59647;55.838;37.292;2022-12-07T16:03:37;-6.56;73.29
71801;HTU21D;59647;55.838;37.292;2022-12-07T16:06:04;-6.60;73.48
71801;HTU21D;59647;55.838;37.292;2022-12-07T16:08:29;-6.56;73.33
71801;HTU21D;59647;55.838;37.292;2022-12-07T16:10:55;-6.59;74.28
71801;HTU21D;59647;55.838;37.292;2022-12-07T16:13:21;-6.57;73.79
71801;HTU21D;59647;55.838;37.292;2022-12-07T16:15:47;-6.57;73.35
71801;HTU21D;59647;55.838;37.292;2022-12-07T16:18:13;-6.62;74.79
71801;HTU21D;59647;55.838;37.292;2022-12-07T16:20:39;-6.59;73.91
71801;HTU21D;59647;55.838;37.292;2022-12-07T16:23:06;-6.56;73.50
71801;HTU21D;59647;55.838;37.292;2022-12-07T16:25:33;-6.55;74.15
71801;HTU21D;59647;55.838;37.292;2022-12-07T16:27:59;-6.52;74.17
71801;HTU21D;59647;55.838;37.292;2022-12-07T16:30:24;-6.51;73.64
71801;HTU21D;59647;55.838;37.292;2022-12-07T16:32:51;-6.53;74.25
71801;HTU21D;59647;55.838;37.292;2022-12-07T16:35:17;-6.58;74.63
71801;HTU21D;59647;55.838;37.292;2022-12-07T16:37:43;-6.55;73.57
71801;HTU21D;59647;55.838;37.292;2022-12-07T16:40:09;-6.58;74.31
71801;HTU21D;59647;55.838;37.292;2022-12-07T16:42:35;-6.60;74.86
71801;HTU21D;59647;55.838;37.292;2022-12-07T16:45:02;-6.61;75.15
71801;HTU21D;59647;55.838;37.292;2022-12-07T16:47:29;-6.66;75.63
71801;HTU21D;59647;55.838;37.292;2022-12-07T16:49:55;-6.63;76.00
71801;HTU21D;59647;55.838;37.292;2022-12-07T16:52:21;-6.70;75.91
71801;HTU21D;59647;55.838;37.292;2022-12-07T16:54:48;-6.64;75.14
71801;HTU21D;59647;55.838;37.292;2022-12-07T16:57:15;-6.70;76.69
71801;HTU21D;59647;55.838;37.292;2022-12-07T16:59:41;-6.60;75.13
71801;HTU21D;59647;55.838;37.292;2022-12-07T17:02:10;-6.67;76.56
71801;HTU21D;59647;55.838;37.292;2022-12-07T17:04:36;-6.72;76.95
71801;HTU21D;59647;55.838;37.292;2022-12-07T17:07:05;-6.79;77.27
71801;HTU21D;59647;55.838;37.292;2022-12-07T17:09:32;-6.78;76.91
71801;HTU21D;59647;55.838;37.292;2022-12-07T17:11:58;-6.82;77.42
71801;HTU21D;59647;55.838;37.292;2022-12-07T17:14:24;-6.76;76.86
71801;HTU21D;59647;55.838;37.292;2022-12-07T17:17:08;-6.77;76.80
71801;HTU21D;59647;55.838;37.292;2022-12-07T17:19:35;-6.75;76.42
71801;HTU21D;59647;55.838;37.292;2022-12-07T17:22:01;-6.72;76.21